sensor_id;sensor_type;location;lat;lon;timestamp;temperature;humidity
12119;DHT22;6123;48.864;9.200;2023-04-24T00:01:05;11.80;99.90
12119;DHT22;6123;48.864;9.200;2023-04-24T00:03:32;11.80;99.90
12119;DHT22;6123;48.864;9.200;2023-04-24T00:05:58;11.90;99.90
12119;DHT22;6123;48.864;9.200;2023-04-24T00:08:24;11.80;99.90
12119;DHT22;6123;48.864;9.200;2023-04-24T00:10:50;11.90;99.90
12119;DHT22;6123;48.864;9.200;2023-04-24T00:13:15;11.90;99.90
12119;DHT22;6123;48.864;9.200;2023-04-24T00:15:41;11.90;99.90
12119;DHT22;6123;48.864;9.200;2023-04-24T00:18:06;11.90;99.90
12119;DHT22;6123;48.864;9.200;2023-04-24T00:20:32;12.00;99.90
12119;DHT22;6123;48.864;9.200;2023-04-24T00:22:58;12.00;99.90
12119;DHT22;6123;48.864;9.200;2023-04-24T00:25:24;12.10;99.90
12119;DHT22;6123;48.864;9.200;2023-04-24T00:27:52;12.00;99.90
12119;DHT22;6123;48.864;9.200;2023-04-24T00:30:17;12.10;99.90
12119;DHT22;6123;48.864;9.200;2023-04-24T00:32:43;12.10;99.90
12119;DHT22;6123;48.864;9.200;2023-04-24T00:35:09;12.10;99.90
12119;DHT22;6123;48.864;9.200;2023-04-24T00:37:37;12.10;99.90
12119;DHT22;6123;48.864;9.200;2023-04-24T00:40:05;12.10;99.90
12119;DHT22;6123;48.864;9.200;2023-04-24T00:42:31;12.10;99.90
12119;DHT22;6123;48.864;9.200;2023-04-24T00:44:57;12.10;99.90
12119;DHT22;6123;48.864;9.200;2023-04-24T00:47:23;12.10;99.90
12119;DHT22;6123;48.864;9.200;2023-04-24T00:49:49;12.10;99.90
12119;DHT22;6123;48.864;9.200;2023-04-24T00:52:15;12.10;99.90
12119;DHT22;6123;48.864;9.200;2023-04-24T00:54:43;12.10;99.90
12119;DHT22;6123;48.864;9.200;2023-04-24T00:57:12;12.20;99.90
12119;DHT22;6123;48.864;9.200;2023-04-24T00:59:39;12.10;99.90
12119;DHT22;6123;48.864;9.200;2023-04-24T01:02:09;12.20;99.90
12119;DHT22;6123;48.864;9.200;2023-04-24T01:04:36;12.20;99.90
12119;DHT22;6123;48.864;9.200;2023-04-24T01:07:02;12.10;99.90
12119;DHT22;6123;48.864;9.200;2023-04-24T01:09:28;12.20;99.90
12119;DHT22;6123;48.864;9.200;2023-04-24T01:11:56;12.20;99.90
12119;DHT22;6123;48.864;9.200;2023-04-24T01:14:22;12.20;99.90
12119;DHT22;6123;48.864;9.200;2023-04-24T01:16:48;12.20;99.90
12119;DHT22;6123;48.864;9.200;2023-04-24T01:19:15;12.20;99.90
12119;DHT22;6123;48.864;9.200;2023-04-24T01:21:47;12.20;99.90
12119;DHT22;6123;48.864;9.200;2023-04-24T01:24:12;12.20;99.90
12119;DHT22;6123;48.864;9.200;2023-04-24T01:26:38;12.20;99.90
12119;DHT22;6123;48.864;9.200;2023-04-24T01:29:04;12.10;99.90
12119;DHT22;6123;48.864;9.200;2023-04-24T01:31:30;12.10;99.90
12119;DHT22;6123;48.864;9.200;2023-04-24T01:33:58;12.10;99.90
12119;DHT22;6123;48.864;9.200;2023-04-24T01:36:25;12.00;99.90
12119;DHT22;6123;48.864;9.200;2023-04-24T01:38:52;12.00;99.90
12119;DHT22;6123;48.864;9.200;2023-04-24T01:41:18;12.00;99.90
12119;DHT22;6123;48.864;9.200;2023-04-24T01:43:48;12.00;99.90
12119;DHT22;6123;48.864;9.200;2023-04-24T01:46:14;12.00;99.90
12119;DHT22;6123;48.864;9.200;2023-04-24T01:48:42;11.90;99.90
12119;DHT22;6123;48.864;9.200;2023-04-24T01:51:10;11.90;99.90
12119;DHT22;6123;48.864;9.200;2023-04-24T01:53:36;11.90;99.90
12119;DHT22;6123;48.864;9.200;2023-04-24T01:56:01;11.90;99.90
12119;DHT22;6123;48.864;9.200;2023-04-24T01:58:28;11.90;99.90
12119;DHT22;6123;48.864;9.200;2023-04-24T02:00:56;11.90;99.90
12119;DHT22;6123;48.864;9.200;2023-04-24T02:03:25;11.90;99.90
12119;DHT22;6123;48.864;9.200;2023-04-24T02:05:50;11.80;99.90
12119;DHT22;6123;48.864;9.200;2023-04-24T02:08:18;11.90;99.90
12119;DHT22;6123;48.864;9.200;2023-04-24T02:10:44;11.80;99.90
12119;DHT22;6123;48.864;9.200;2023-04-24T02:13:12;11.80;99.90
12119;DHT22;6123;48.864;9.200;2023-04-24T02:15:37;11.80;99.90
12119;DHT22;6123;48.864;9.200;2023-04-24T02:18:03;11.70;99.90
12119;DHT22;6123;48.864;9.200;2023-04-24T02:20:29;11.70;99.90
12119;DHT22;6123;48.864;9.200;2023-04-24T02:22:54;11.70;99.90
12119;DHT22;6123;48.864;9.200;2023-04-24T02:25:20;11.70;99.90
12119;DHT22;6123;48.864;9.200;2023-04-24T02:27:49;11.70;99.90
12119;DHT22;6123;48.864;9.200;2023-04-24T02:30:15;11.80;99.90
12119;DHT22;6123;48.864;9.200;2023-04-24T02:32:40;11.70;99.90
12119;DHT22;6123;48.864;9.200;2023-04-24T02:35:06;11.80;99.90
12119;DHT22;6123;48.864;9.200;2023-04-24T02:37:32;11.80;99.90
12119;DHT22;6123;48.864;9.200;2023-04-24T02:40:00;11.80;99.90
12119;DHT22;6123;48.864;9.200;2023-04-24T02:42:28;11.80;99.90
12119;DHT22;6123;48.864;9.200;2023-04-24T02:44:54;11.80;99.90
12119;DHT22;6123;48.864;9.200;2023-04-24T02:47:21;11.80;99.90
12119;DHT22;6123;48.864;9.200;2023-04-24T02:49:47;11.80;99.90
12119;DHT22;6123;48.864;9.200;2023-04-24T02:52:15;11.80;99.90
12119;DHT22;6123;48.864;9.200;2023-04-24T02:54:42;11.70;99.90
12119;DHT22;6123;48.864;9.200;2023-04-24T02:57:08;11.70;99.90
12119;DHT22;6123;48.864;9.200;2023-04-24T02:59:33;11.60;99.90
12119;DHT22;6123;48.864;9.200;2023-04-24T03:02:01;11.60;99.90
12119;DHT22;6123;48.864;9.200;2023-04-24T03:04:29;11.50;99.90
12119;DHT22;6123;48.864;9.200;2023-04-24T03:06:55;11.50;99.90
12119;DHT22;6123;48.864;9.200;2023-04-24T03:09:21;11.50;99.90
12119;DHT22;6123;48.864;9.200;2023-04-24T03:11:50;11.50;99.90
12119;DHT22;6123;48.864;9.200;2023-04-24T03:14:16;11.50;99.90
12119;DHT22;6123;48.864;9.200;2023-04-24T03:16:44;11.40;99.90
12119;DHT22;6123;48.864;9.200;2023-04-24T03:19:10;11.40;99.90
12119;DHT22;6123;48.864;9.200;2023-04-24T03:21:35;11.40;99.90
12119;DHT22;6123;48.864;9.200;2023-04-24T03:24:06;11.30;99.90
12119;DHT22;6123;48.864;9.200;2023-04-24T03:26:32;11.20;99.90
12119;DHT22;6123;48.864;9.200;2023-04-24T03:28:57;11.20;99.90
12119;DHT22;6123;48.864;9.200;2023-04-24T03:31:26;11.20;99.90
12119;DHT22;6123;48.864;9.200;2023-04-24T03:33:53;11.20;99.90
12119;DHT22;6123;48.864;9.200;2023-04-24T03:36:19;11.10;99.90
12119;DHT22;6123;48.864;9.200;2023-04-24T03:38:45;11.10;99.90
12119;DHT22;6123;48.864;9.200;2023-04-24T03:41:10;11.10;99.90
12119;DHT22;6123;48.864;9.200;2023-04-24T03:43:38;11.10;99.90
12119;DHT22;6123;48.864;9.200;2023-04-24T03:46:05;11.00;99.90
12119;DHT22;6123;48.864;9.200;2023-04-24T03:48:30;11.00;99.90
12119;DHT22;6123;48.864;9.200;2023-04-24T03:50:56;11.00;99.90
12119;DHT22;6123;48.864;9.200;2023-04-24T03:53:24;11.00;99.90
12119;DHT22;6123;48.864;9.200;2023-04-24T03:55:49;10.90;99.90
12119;DHT22;6123;48.864;9.200;2023-04-24T03:58:15;11.00;99.90
12119;DHT22;6123;48.864;9.200;2023-04-24T04:00:41;11.00;99.90
12119;DHT22;6123;48.864;9.200;2023-04-24T04:03:09;11.00;99.90
12119;DHT22;6123;48.864;9.200;2023-04-24T04:05:37;10.90;99.90
12119;DHT22;6123;48.864;9.200;2023-04-24T04:08:03;10.90;99.90
12119;DHT22;6123;48.864;9.200;2023-04-24T04:10:28;10.90;99.90
12119;DHT22;6123;48.864;9.200;2023-04-24T04:12:54;11.00;99.90
12119;DHT22;6123;48.864;9.200;2023-04-24T04:15:22;11.00;99.90
12119;DHT22;6123;48.864;9.200;2023-04-24T04:17:48;11.00;99.90
12119;DHT22;6123;48.864;9.200;2023-04-24T04:20:13;11.00;99.90
12119;DHT22;6123;48.864;9.200;2023-04-24T04:22:39;11.00;99.90
12119;DHT22;6123;48.864;9.200;2023-04-24T04:25:05;11.00;99.90
12119;DHT22;6123;48.864;9.200;2023-04-24T04:27:31;10.90;99.90
12119;DHT22;6123;48.864;9.200;2023-04-24T04:29:58;10.60;99.90
12119;DHT22;6123;48.864;9.200;2023-04-24T04:32:28;10.50;99.90
12119;DHT22;6123;48.864;9.200;2023-04-24T04:34:53;10.30;99.90
12119;DHT22;6123;48.864;9.200;2023-04-24T04:37:19;10.30;99.90
12119;DHT22;6123;48.864;9.200;2023-04-24T04:39:44;10.20;99.90
12119;DHT22;6123;48.864;9.200;2023-04-24T04:42:13;10.30;99.90
12119;DHT22;6123;48.864;9.200;2023-04-24T04:44:41;10.30;99.90
12119;DHT22;6123;48.864;9.200;2023-04-24T04:47:07;10.30;99.90
12119;DHT22;6123;48.864;9.200;2023-04-24T04:49:36;10.30;99.90
12119;DHT22;6123;48.864;9.200;2023-04-24T04:52:02;10.30;99.90
12119;DHT22;6123;48.864;9.200;2023-04-24T04:54:27;10.20;99.90
12119;DHT22;6123;48.864;9.200;2023-04-24T04:56:55;10.20;99.90
12119;DHT22;6123;48.864;9.200;2023-04-24T04:59:22;10.20;99.90
12119;DHT22;6123;48.864;9.200;2023-04-24T05:01:48;10.30;99.90
12119;DHT22;6123;48.864;9.200;2023-04-24T05:04:13;10.30;99.90
12119;DHT22;6123;48.864;9.200;2023-04-24T05:06:39;10.30;99.90
12119;DHT22;6123;48.864;9.200;2023-04-24T05:09:05;10.30;99.90
12119;DHT22;6123;48.864;9.200;2023-04-24T05:11:30;10.10;99.90
12119;DHT22;6123;48.864;9.200;2023-04-24T05:13:56;10.20;99.90
12119;DHT22;6123;48.864;9.200;2023-04-24T05:16:21;10.20;99.90
12119;DHT22;6123;48.864;9.200;2023-04-24T05:18:47;10.20;99.90
12119;DHT22;6123;48.864;9.200;2023-04-24T05:21:12;10.20;99.90
12119;DHT22;6123;48.864;9.200;2023-04-24T05:23:38;10.10;99.90
12119;DHT22;6123;48.864;9.200;2023-04-24T05:26:04;10.00;99.90
12119;DHT22;6123;48.864;9.200;2023-04-24T05:28:30;10.00;99.90
12119;DHT22;6123;48.864;9.200;2023-04-24T05:30:58;9.90;99.90
12119;DHT22;6123;48.864;9.200;2023-04-24T05:33:26;10.00;99.90
12119;DHT22;6123;48.864;9.200;2023-04-24T05:35:51;9.90;99.90
12119;DHT22;6123;48.864;9.200;2023-04-24T05:38:17;10.10;99.90
12119;DHT22;6123;48.864;9.200;2023-04-24T05:40:47;10.10;99.90
12119;DHT22;6123;48.864;9.200;2023-04-24T05:43:13;10.00;99.90
12119;DHT22;6123;48.864;9.200;2023-04-24T05:45:39;9.90;99.90
12119;DHT22;6123;48.864;9.200;2023-04-24T05:48:05;10.00;99.90
12119;DHT22;6123;48.864;9.200;2023-04-24T05:50:31;10.00;99.90
12119;DHT22;6123;48.864;9.200;2023-04-24T05:52:57;10.10;99.90
12119;DHT22;6123;48.864;9.200;2023-04-24T05:55:25;10.00;99.90
12119;DHT22;6123;48.864;9.200;2023-04-24T05:57:51;10.00;99.90
12119;DHT22;6123;48.864;9.200;2023-04-24T06:00:17;10.00;99.90
12119;DHT22;6123;48.864;9.200;2023-04-24T06:02:45;10.10;99.90
12119;DHT22;6123;48.864;9.200;2023-04-24T06:05:13;10.20;99.90
12119;DHT22;6123;48.864;9.200;2023-04-24T06:07:38;10.10;99.90
12119;DHT22;6123;48.864;9.200;2023-04-24T06:10:07;10.20;99.90
12119;DHT22;6123;48.864;9.200;2023-04-24T06:12:33;10.20;99.90
12119;DHT22;6123;48.864;9.200;2023-04-24T06:14:58;10.20;99.90
12119;DHT22;6123;48.864;9.200;2023-04-24T06:17:24;10.20;99.90
12119;DHT22;6123;48.864;9.200;2023-04-24T06:19:49;10.20;99.90
12119;DHT22;6123;48.864;9.200;2023-04-24T06:22:17;10.30;99.90
12119;DHT22;6123;48.864;9.200;2023-04-24T06:24:45;10.50;99.90
12119;DHT22;6123;48.864;9.200;2023-04-24T06:27:12;10.70;99.90
12119;DHT22;6123;48.864;9.200;2023-04-24T06:29:38;11.00;99.90
12119;DHT22;6123;48.864;9.200;2023-04-24T06:32:03;11.10;99.90
12119;DHT22;6123;48.864;9.200;2023-04-24T06:34:29;11.00;99.90
12119;DHT22;6123;48.864;9.200;2023-04-24T06:36:56;11.00;99.90
12119;DHT22;6123;48.864;9.200;2023-04-24T06:39:26;11.20;99.90
12119;DHT22;6123;48.864;9.200;2023-04-24T06:41:52;11.10;99.90
12119;DHT22;6123;48.864;9.200;2023-04-24T06:44:17;11.20;99.90
12119;DHT22;6123;48.864;9.200;2023-04-24T06:46:43;11.10;99.90
12119;DHT22;6123;48.864;9.200;2023-04-24T06:49:09;11.00;99.90
12119;DHT22;6123;48.864;9.200;2023-04-24T06:51:35;11.00;99.90
12119;DHT22;6123;48.864;9.200;2023-04-24T06:54:00;11.00;99.90
12119;DHT22;6123;48.864;9.200;2023-04-24T06:56:27;11.40;99.90
12119;DHT22;6123;48.864;9.200;2023-04-24T06:58:54;11.50;99.90
12119;DHT22;6123;48.864;9.200;2023-04-24T07:01:20;11.80;99.90
12119;DHT22;6123;48.864;9.200;2023-04-24T07:03:45;12.10;99.90
12119;DHT22;6123;48.864;9.200;2023-04-24T07:06:11;12.10;99.90
12119;DHT22;6123;48.864;9.200;2023-04-24T07:08:37;11.90;99.90
12119;DHT22;6123;48.864;9.200;2023-04-24T07:11:03;11.70;99.90
12119;DHT22;6123;48.864;9.200;2023-04-24T07:13:29;11.80;99.90
12119;DHT22;6123;48.864;9.200;2023-04-24T07:15:55;11.90;99.90
12119;DHT22;6123;48.864;9.200;2023-04-24T07:18:22;11.90;99.90
12119;DHT22;6123;48.864;9.200;2023-04-24T07:20:47;11.90;99.90
12119;DHT22;6123;48.864;9.200;2023-04-24T07:23:15;11.90;99.90
12119;DHT22;6123;48.864;9.200;2023-04-24T07:25:44;11.70;99.90
12119;DHT22;6123;48.864;9.200;2023-04-24T07:28:09;11.70;99.90
12119;DHT22;6123;48.864;9.200;2023-04-24T07:30:35;11.80;99.90
12119;DHT22;6123;48.864;9.200;2023-04-24T07:33:03;11.80;99.90
12119;DHT22;6123;48.864;9.200;2023-04-24T07:35:28;11.90;99.90
12119;DHT22;6123;48.864;9.200;2023-04-24T07:37:54;12.30;99.90
12119;DHT22;6123;48.864;9.200;2023-04-24T07:40:20;12.60;99.90
12119;DHT22;6123;48.864;9.200;2023-04-24T07:42:46;12.60;99.90
12119;DHT22;6123;48.864;9.200;2023-04-24T07:45:14;12.20;99.90
12119;DHT22;6123;48.864;9.200;2023-04-24T07:47:42;12.30;99.90
12119;DHT22;6123;48.864;9.200;2023-04-24T07:50:09;12.20;99.90
12119;DHT22;6123;48.864;9.200;2023-04-24T07:52:37;12.10;99.90
12119;DHT22;6123;48.864;9.200;2023-04-24T07:55:03;12.00;99.90
12119;DHT22;6123;48.864;9.200;2023-04-24T07:57:30;12.10;99.90
12119;DHT22;6123;48.864;9.200;2023-04-24T07:59:55;11.80;99.90
12119;DHT22;6123;48.864;9.200;2023-04-24T08:02:21;12.00;99.90
12119;DHT22;6123;48.864;9.200;2023-04-24T08:04:54;12.00;99.90
12119;DHT22;6123;48.864;9.200;2023-04-24T08:07:20;12.10;99.90
12119;DHT22;6123;48.864;9.200;2023-04-24T08:09:48;12.30;99.90
12119;DHT22;6123;48.864;9.200;2023-04-24T08:12:13;11.90;99.90
12119;DHT22;6123;48.864;9.200;2023-04-24T08:14:39;11.90;99.90
12119;DHT22;6123;48.864;9.200;2023-04-24T08:17:07;12.40;99.90
12119;DHT22;6123;48.864;9.200;2023-04-24T08:19:32;12.20;99.90
12119;DHT22;6123;48.864;9.200;2023-04-24T08:21:58;12.30;99.90
12119;DHT22;6123;48.864;9.200;2023-04-24T08:24:24;12.10;99.90
12119;DHT22;6123;48.864;9.200;2023-04-24T08:26:52;11.80;99.90
12119;DHT22;6123;48.864;9.200;2023-04-24T08:29:19;11.60;99.90
12119;DHT22;6123;48.864;9.200;2023-04-24T08:31:48;11.60;99.90
12119;DHT22;6123;48.864;9.200;2023-04-24T08:34:14;11.70;99.90
12119;DHT22;6123;48.864;9.200;2023-04-24T08:36:43;11.70;99.90
12119;DHT22;6123;48.864;9.200;2023-04-24T08:39:08;11.90;99.90
12119;DHT22;6123;48.864;9.200;2023-04-24T08:41:37;12.00;99.90
12119;DHT22;6123;48.864;9.200;2023-04-24T08:44:03;12.00;99.90
12119;DHT22;6123;48.864;9.200;2023-04-24T08:46:30;11.90;99.90
12119;DHT22;6123;48.864;9.200;2023-04-24T08:48:56;11.90;99.90
12119;DHT22;6123;48.864;9.200;2023-04-24T08:51:22;11.70;99.90
12119;DHT22;6123;48.864;9.200;2023-04-24T08:53:54;12.10;99.90
12119;DHT22;6123;48.864;9.200;2023-04-24T08:56:21;12.40;99.90
12119;DHT22;6123;48.864;9.200;2023-04-24T08:58:50;12.30;99.90
12119;DHT22;6123;48.864;9.200;2023-04-24T09:01:18;12.00;99.90
12119;DHT22;6123;48.864;9.200;2023-04-24T09:03:44;12.00;99.90
12119;DHT22;6123;48.864;9.200;2023-04-24T09:06:11;12.00;99.90
12119;DHT22;6123;48.864;9.200;2023-04-24T09:08:38;12.20;99.90
12119;DHT22;6123;48.864;9.200;2023-04-24T09:11:05;12.10;99.90
12119;DHT22;6123;48.864;9.200;2023-04-24T09:13:32;12.20;99.90
12119;DHT22;6123;48.864;9.200;2023-04-24T09:16:01;12.40;99.90
12119;DHT22;6123;48.864;9.200;2023-04-24T09:18:27;12.70;99.90
12119;DHT22;6123;48.864;9.200;2023-04-24T09:23:31;12.20;99.90
12119;DHT22;6123;48.864;9.200;2023-04-24T09:25:58;12.10;99.90
12119;DHT22;6123;48.864;9.200;2023-04-24T09:28:44;11.90;99.90
12119;DHT22;6123;48.864;9.200;2023-04-24T09:31:15;11.80;99.90
12119;DHT22;6123;48.864;9.200;2023-04-24T09:34:04;11.70;99.90
12119;DHT22;6123;48.864;9.200;2023-04-24T09:36:37;11.80;99.90
12119;DHT22;6123;48.864;9.200;2023-04-24T09:39:16;12.00;99.90
12119;DHT22;6123;48.864;9.200;2023-04-24T09:44:22;12.30;99.90
12119;DHT22;6123;48.864;9.200;2023-04-24T09:46:52;12.70;99.90
12119;DHT22;6123;48.864;9.200;2023-04-24T09:49:23;12.80;99.90
12119;DHT22;6123;48.864;9.200;2023-04-24T09:51:50;13.20;99.90
12119;DHT22;6123;48.864;9.200;2023-04-24T09:54:21;13.00;99.90
12119;DHT22;6123;48.864;9.200;2023-04-24T09:56:52;12.70;99.90
12119;DHT22;6123;48.864;9.200;2023-04-24T09:59:19;12.50;99.90
12119;DHT22;6123;48.864;9.200;2023-04-24T10:01:45;12.50;99.90
12119;DHT22;6123;48.864;9.200;2023-04-24T10:04:25;12.40;99.90
12119;DHT22;6123;48.864;9.200;2023-04-24T10:06:56;12.80;99.90
12119;DHT22;6123;48.864;9.200;2023-04-24T10:09:28;12.90;99.90
12119;DHT22;6123;48.864;9.200;2023-04-24T10:11:56;13.20;99.90
12119;DHT22;6123;48.864;9.200;2023-04-24T10:14:24;12.90;99.90
12119;DHT22;6123;48.864;9.200;2023-04-24T10:16:53;13.00;99.90
12119;DHT22;6123;48.864;9.200;2023-04-24T10:19:19;13.20;99.90
12119;DHT22;6123;48.864;9.200;2023-04-24T10:21:48;13.30;99.90
12119;DHT22;6123;48.864;9.200;2023-04-24T10:24:16;13.10;99.90
12119;DHT22;6123;48.864;9.200;2023-04-24T10:26:43;12.90;99.90
12119;DHT22;6123;48.864;9.200;2023-04-24T10:29:13;12.60;99.90
12119;DHT22;6123;48.864;9.200;2023-04-24T10:31:40;12.50;99.90
12119;DHT22;6123;48.864;9.200;2023-04-24T10:34:07;12.60;99.90
12119;DHT22;6123;48.864;9.200;2023-04-24T10:36:34;12.60;99.90
12119;DHT22;6123;48.864;9.200;2023-04-24T10:39:02;12.30;99.90
12119;DHT22;6123;48.864;9.200;2023-04-24T10:41:30;12.10;99.90
12119;DHT22;6123;48.864;9.200;2023-04-24T10:44:09;12.00;99.90
12119;DHT22;6123;48.864;9.200;2023-04-24T10:46:39;12.00;99.90
12119;DHT22;6123;48.864;9.200;2023-04-24T10:49:06;11.90;99.90
12119;DHT22;6123;48.864;9.200;2023-04-24T10:51:52;11.90;99.90
12119;DHT22;6123;48.864;9.200;2023-04-24T10:54:33;11.70;99.90
12119;DHT22;6123;48.864;9.200;2023-04-24T10:59:48;12.00;99.90
12119;DHT22;6123;48.864;9.200;2023-04-24T11:02:14;11.90;99.90
12119;DHT22;6123;48.864;9.200;2023-04-24T11:04:41;11.90;99.90
12119;DHT22;6123;48.864;9.200;2023-04-24T11:07:09;12.20;99.90
12119;DHT22;6123;48.864;9.200;2023-04-24T11:09:35;12.50;99.90
12119;DHT22;6123;48.864;9.200;2023-04-24T11:12:05;13.00;99.90
12119;DHT22;6123;48.864;9.200;2023-04-24T11:20:06;13.00;99.90
12119;DHT22;6123;48.864;9.200;2023-04-24T11:22:37;13.50;99.90
12119;DHT22;6123;48.864;9.200;2023-04-24T11:25:03;13.60;99.90
12119;DHT22;6123;48.864;9.200;2023-04-24T11:30:06;13.40;99.90
12119;DHT22;6123;48.864;9.200;2023-04-24T11:32:42;13.40;99.90
12119;DHT22;6123;48.864;9.200;2023-04-24T11:35:21;13.00;99.90
12119;DHT22;6123;48.864;9.200;2023-04-24T11:37:52;13.10;99.90
12119;DHT22;6123;48.864;9.200;2023-04-24T11:40:19;13.20;99.90
12119;DHT22;6123;48.864;9.200;2023-04-24T11:42:50;13.20;99.90
12119;DHT22;6123;48.864;9.200;2023-04-24T11:45:21;13.00;99.90
12119;DHT22;6123;48.864;9.200;2023-04-24T11:47:47;12.80;99.90
12119;DHT22;6123;48.864;9.200;2023-04-24T11:50:17;12.80;99.90
12119;DHT22;6123;48.864;9.200;2023-04-24T11:52:47;12.60;99.90
12119;DHT22;6123;48.864;9.200;2023-04-24T11:57:48;12.60;99.90
12119;DHT22;6123;48.864;9.200;2023-04-24T12:00:20;12.60;99.90
12119;DHT22;6123;48.864;9.200;2023-04-24T12:02:49;12.60;99.90
12119;DHT22;6123;48.864;9.200;2023-04-24T12:05:23;12.80;99.90
12119;DHT22;6123;48.864;9.200;2023-04-24T12:07:49;12.70;99.90
12119;DHT22;6123;48.864;9.200;2023-04-24T12:12:48;13.10;99.90
12119;DHT22;6123;48.864;9.200;2023-04-24T12:15:16;13.10;99.90
12119;DHT22;6123;48.864;9.200;2023-04-24T12:17:42;12.70;99.90
12119;DHT22;6123;48.864;9.200;2023-04-24T12:20:09;12.50;99.90
12119;DHT22;6123;48.864;9.200;2023-04-24T12:22:55;12.50;99.90
12119;DHT22;6123;48.864;9.200;2023-04-24T12:25:34;12.50;99.90
12119;DHT22;6123;48.864;9.200;2023-04-24T12:30:29;12.60;99.90
12119;DHT22;6123;48.864;9.200;2023-04-24T12:32:57;12.50;99.90
12119;DHT22;6123;48.864;9.200;2023-04-24T12:35:25;12.50;99.90
12119;DHT22;6123;48.864;9.200;2023-04-24T12:37:53;12.50;99.90
12119;DHT22;6123;48.864;9.200;2023-04-24T12:40:20;12.50;99.90
12119;DHT22;6123;48.864;9.200;2023-04-24T12:42:50;12.60;99.90
12119;DHT22;6123;48.864;9.200;2023-04-24T12:45:18;12.60;99.90
12119;DHT22;6123;48.864;9.200;2023-04-24T12:47:47;12.50;99.90
12119;DHT22;6123;48.864;9.200;2023-04-24T12:50:15;12.50;99.90
12119;DHT22;6123;48.864;9.200;2023-04-24T12:52:41;12.40;99.90
12119;DHT22;6123;48.864;9.200;2023-04-24T12:55:15;12.30;99.90
12119;DHT22;6123;48.864;9.200;2023-04-24T12:57:41;12.50;99.90
12119;DHT22;6123;48.864;9.200;2023-04-24T13:00:08;12.50;99.90
12119;DHT22;6123;48.864;9.200;2023-04-24T13:02:33;12.20;99.90
12119;DHT22;6123;48.864;9.200;2023-04-24T13:04:59;12.10;99.90
12119;DHT22;6123;48.864;9.200;2023-04-24T13:07:26;11.80;99.90
12119;DHT22;6123;48.864;9.200;2023-04-24T13:09:52;11.80;99.90
12119;DHT22;6123;48.864;9.200;2023-04-24T13:12:18;11.80;99.90
12119;DHT22;6123;48.864;9.200;2023-04-24T13:14:45;12.30;99.90
12119;DHT22;6123;48.864;9.200;2023-04-24T13:17:11;12.30;99.90
12119;DHT22;6123;48.864;9.200;2023-04-24T13:19:39;12.40;99.90
12119;DHT22;6123;48.864;9.200;2023-04-24T13:22:05;12.50;99.90
12119;DHT22;6123;48.864;9.200;2023-04-24T13:24:32;12.50;99.90
12119;DHT22;6123;48.864;9.200;2023-04-24T13:26:58;12.50;99.90
12119;DHT22;6123;48.864;9.200;2023-04-24T13:29:24;12.50;99.90
12119;DHT22;6123;48.864;9.200;2023-04-24T13:31:53;12.40;99.90
12119;DHT22;6123;48.864;9.200;2023-04-24T13:34:21;12.50;99.90
12119;DHT22;6123;48.864;9.200;2023-04-24T13:36:46;12.60;99.90
12119;DHT22;6123;48.864;9.200;2023-04-24T13:39:12;12.90;99.90
12119;DHT22;6123;48.864;9.200;2023-04-24T13:41:40;13.00;99.90
12119;DHT22;6123;48.864;9.200;2023-04-24T13:44:06;12.80;99.90
12119;DHT22;6123;48.864;9.200;2023-04-24T13:46:35;12.60;99.90
12119;DHT22;6123;48.864;9.200;2023-04-24T13:49:02;12.20;99.90
12119;DHT22;6123;48.864;9.200;2023-04-24T13:51:29;12.30;99.90
12119;DHT22;6123;48.864;9.200;2023-04-24T13:53:57;12.50;99.90
12119;DHT22;6123;48.864;9.200;2023-04-24T13:56:23;12.70;99.90
12119;DHT22;6123;48.864;9.200;2023-04-24T13:58:51;12.50;99.90
12119;DHT22;6123;48.864;9.200;2023-04-24T14:01:16;12.40;99.90
12119;DHT22;6123;48.864;9.200;2023-04-24T14:03:42;12.30;99.90
12119;DHT22;6123;48.864;9.200;2023-04-24T14:06:10;12.30;99.90
12119;DHT22;6123;48.864;9.200;2023-04-24T14:08:38;12.30;99.90
12119;DHT22;6123;48.864;9.200;2023-04-24T14:11:04;12.20;99.90
12119;DHT22;6123;48.864;9.200;2023-04-24T14:13:32;12.40;99.90
12119;DHT22;6123;48.864;9.200;2023-04-24T14:16:01;12.40;99.90
12119;DHT22;6123;48.864;9.200;2023-04-24T14:18:26;12.30;99.90
12119;DHT22;6123;48.864;9.200;2023-04-24T14:20:52;12.60;99.90
12119;DHT22;6123;48.864;9.200;2023-04-24T14:23:18;12.40;99.90
12119;DHT22;6123;48.864;9.200;2023-04-24T14:25:43;12.40;99.90
12119;DHT22;6123;48.864;9.200;2023-04-24T14:28:09;12.60;99.90
12119;DHT22;6123;48.864;9.200;2023-04-24T14:30:37;12.90;99.90
12119;DHT22;6123;48.864;9.200;2023-04-24T14:33:03;13.30;99.90
12119;DHT22;6123;48.864;9.200;2023-04-24T14:35:29;13.60;99.90
12119;DHT22;6123;48.864;9.200;2023-04-24T14:37:59;13.40;99.90
12119;DHT22;6123;48.864;9.200;2023-04-24T14:40:25;13.00;99.90
12119;DHT22;6123;48.864;9.200;2023-04-24T14:42:51;13.20;99.90
12119;DHT22;6123;48.864;9.200;2023-04-24T14:45:16;13.10;99.90
12119;DHT22;6123;48.864;9.200;2023-04-24T14:47:42;13.30;99.90
12119;DHT22;6123;48.864;9.200;2023-04-24T14:50:08;13.00;99.90
12119;DHT22;6123;48.864;9.200;2023-04-24T14:52:34;13.00;99.90
12119;DHT22;6123;48.864;9.200;2023-04-24T14:55:00;13.20;99.90
12119;DHT22;6123;48.864;9.200;2023-04-24T14:57:25;13.20;99.90
12119;DHT22;6123;48.864;9.200;2023-04-24T14:59:51;13.20;99.90
12119;DHT22;6123;48.864;9.200;2023-04-24T15:02:17;13.00;99.90
12119;DHT22;6123;48.864;9.200;2023-04-24T15:04:42;12.80;99.90
12119;DHT22;6123;48.864;9.200;2023-04-24T15:07:08;13.20;99.90
12119;DHT22;6123;48.864;9.200;2023-04-24T15:09:36;13.30;99.90
12119;DHT22;6123;48.864;9.200;2023-04-24T15:12:06;13.40;99.90
12119;DHT22;6123;48.864;9.200;2023-04-24T15:14:32;13.20;99.90
12119;DHT22;6123;48.864;9.200;2023-04-24T15:16:57;12.80;99.90
12119;DHT22;6123;48.864;9.200;2023-04-24T15:19:23;12.70;99.90
12119;DHT22;6123;48.864;9.200;2023-04-24T15:21:51;12.80;99.90
12119;DHT22;6123;48.864;9.200;2023-04-24T15:24:16;12.70;99.90
12119;DHT22;6123;48.864;9.200;2023-04-24T15:26:44;12.70;99.90
12119;DHT22;6123;48.864;9.200;2023-04-24T15:29:12;12.80;99.90
12119;DHT22;6123;48.864;9.200;2023-04-24T15:31:38;12.60;99.90
12119;DHT22;6123;48.864;9.200;2023-04-24T15:34:06;12.50;99.90
12119;DHT22;6123;48.864;9.200;2023-04-24T15:36:32;12.40;99.90
12119;DHT22;6123;48.864;9.200;2023-04-24T15:38:58;12.30;99.90
12119;DHT22;6123;48.864;9.200;2023-04-24T15:41:26;12.30;99.90
12119;DHT22;6123;48.864;9.200;2023-04-24T15:43:51;12.50;99.90
12119;DHT22;6123;48.864;9.200;2023-04-24T15:46:17;12.40;99.90
12119;DHT22;6123;48.864;9.200;2023-04-24T15:48:45;12.40;99.90
12119;DHT22;6123;48.864;9.200;2023-04-24T15:51:11;12.50;99.90
12119;DHT22;6123;48.864;9.200;2023-04-24T15:53:42;12.70;99.90
12119;DHT22;6123;48.864;9.200;2023-04-24T15:56:08;13.00;99.90
12119;DHT22;6123;48.864;9.200;2023-04-24T15:58:34;13.20;99.90
12119;DHT22;6123;48.864;9.200;2023-04-24T16:00:59;13.30;99.90
12119;DHT22;6123;48.864;9.200;2023-04-24T16:03:25;13.40;99.90
12119;DHT22;6123;48.864;9.200;2023-04-24T16:05:52;13.20;99.90
12119;DHT22;6123;48.864;9.200;2023-04-24T16:08:17;13.60;99.90
12119;DHT22;6123;48.864;9.200;2023-04-24T16:10:43;13.50;99.90